Flight Track Log - Related Links

Times and Time Zones

All times are in EDT time to prevent confusion due to time zone crossing. See the HL-7403 flight status page for this flight to view local times or setup timezone preferences in your user account.

Time Position Orientation Groundspeed Altitude Reporting Facility
EDT Latitude Longitude Course Direction KTS MPH feet Rate Location/Type
Thu 10:52:53 PM 37.5410 126.1600 226° Southwest 282 325 10,200  Level FlightAware ADS-B
Thu 10:53:33 PM 37.5040 126.1050 230° Southwest 311 358 11,200 1,074 Climbing FlightAware ADS-B
Thu 10:54:28 PM 37.4810 126.0140 252° West 333 383 11,900 2,084 Climbing FlightAware ADS-B
Thu 10:55:08 PM 37.4630 125.9270 255° West 364 419 14,500 3,741 Climbing FlightAware ADS-B
Thu 10:55:53 PM 37.4420 125.8300 255° West 371 427 17,200 2,463 Climbing FlightAware ADS-B
Thu 10:56:43 PM 37.4200 125.7320 254° West 376 433 18,400 2,820 Climbing FlightAware ADS-B
Thu 10:57:33 PM 37.4030 125.6160 260° West 383 441 21,900 2,686 Climbing FlightAware ADS-B
Thu 10:58:28 PM 37.4010 125.5060 269° West 386 444 23,100 1,771 Climbing FlightAware ADS-B
Thu 10:59:18 PM 37.4000 125.3880 269° West 394 453 25,000 1,267 Climbing FlightAware ADS-B
Thu 10:59:58 PM 37.3990 125.3100 269° West 394 453 25,000 3,067 Level FlightAware ADS-B
Thu 11:00:48 PM 37.3960 125.1730 268° West 392 451 29,600 2,914 Climbing FlightAware ADS-B
Thu 11:01:43 PM 37.3940 125.0550 269° West 387 445 30,100 316 Climbing FlightAware ADS-B
Thu 11:02:23 PM 37.3930 124.9790 269° West 387 445 30,100  Level FlightAware ADS-B
Thu 11:03:03 PM 37.3920 124.9020 269° West 387 445 30,100  Level FlightAware ADS-B
Thu 11:03:33 PM 37.3730 124.8030 256° West 30,100  Level FlightAware ADS-B
Thu 11:06:00 PM 37.4482 124.5256 289° West  Level Estimated
Thu 11:07:00 PM 37.4788 124.4121 289° West  Level Estimated
Thu 11:08:00 PM 37.5092 124.2986 289° West  Level Estimated
Thu 11:09:00 PM 37.5395 124.1851 289° West  Level Estimated
Thu 11:10:00 PM 37.5697 124.0714 289° West  Level Estimated
Thu 11:11:00 PM 37.5998 123.9576 288° West  Level Estimated
Thu 11:12:00 PM 37.6298 123.8437 288° West  Level Estimated
Thu 11:13:00 PM 37.6597 123.7298 288° West  Level Estimated
Thu 11:14:00 PM 37.6894 123.6157 288° West  Level Estimated
Thu 11:15:00 PM 37.7191 123.5016 288° West  Level Estimated
Thu 11:16:00 PM 37.7486 123.3873 288° West  Level Estimated
Thu 11:17:00 PM 37.7781 123.2730 288° West  Level Estimated
Thu 11:18:00 PM 37.8074 123.1586 288° West  Level Estimated
Thu 11:19:00 PM 37.8366 123.0441 288° West  Level Estimated
Thu 11:20:00 PM 37.8657 122.9295 288° West  Level Estimated
Thu 11:21:00 PM 37.8947 122.8148 288° West  Level Estimated
Thu 11:22:00 PM 37.9236 122.7000 288° West  Level Estimated
Thu 11:23:00 PM 37.9524 122.5852 288° West  Level Estimated
Thu 11:24:00 PM 37.9810 122.4702 288° West  Level Estimated
Thu 11:25:00 PM 38.0096 122.3551 288° West  Level Estimated
Thu 11:26:00 PM 38.0380 122.2400 287° West  Level Estimated
Thu 11:27:00 PM 38.0663 122.1248 287° West  Level Estimated
Thu 11:28:00 PM 38.0945 122.0095 287° West  Level Estimated
Thu 11:29:00 PM 38.1226 121.8941 287° West  Level Estimated
Thu 11:30:00 PM 38.1506 121.7786 287° West  Level Estimated
Thu 11:31:00 PM 38.1785 121.6630 287° West  Level Estimated
Thu 11:32:00 PM 38.2062 121.5473 287° West  Level Estimated
Thu 11:33:00 PM 38.2339 121.4316 287° West  Level Estimated
Thu 11:34:00 PM 38.2614 121.3157 287° West  Level Estimated
Thu 11:35:00 PM 38.2888 121.1998 287° West  Level Estimated
Thu 11:36:00 PM 38.3161 121.0838 287° West  Level Estimated
Thu 11:37:00 PM 38.3433 120.9677 287° West  Level Estimated
Thu 11:38:00 PM 38.3704 120.8515 287° West  Level Estimated
Thu 11:39:00 PM 38.3973 120.7352 287° West  Level Estimated
Thu 11:40:00 PM 38.4242 120.6188 286° West  Level Estimated
Thu 11:41:00 PM 38.4509 120.5024 286° West  Level Estimated
Thu 11:42:00 PM 38.4775 120.3858 286° West  Level Estimated
Thu 11:43:00 PM 38.5040 120.2692 286° West  Level Estimated
Thu 11:44:00 PM 38.5304 120.1525 286° West  Level Estimated
Thu 11:45:00 PM 38.5567 120.0357 286° West  Level Estimated
Thu 11:46:00 PM 38.5828 119.9188 286° West  Level Estimated
Thu 11:47:00 PM 38.6088 119.8018 286° West  Level Estimated
Thu 11:48:00 PM 38.6348 119.6848 286° West  Level Estimated
Thu 11:49:00 PM 38.6605 119.5676 286° West  Level Estimated
Thu 11:50:00 PM 38.6862 119.4504 286° West  Level Estimated
Thu 11:51:00 PM 38.7118 119.3331 286° West  Level Estimated
Thu 11:52:00 PM 38.7372 119.2157 286° West  Level Estimated
Thu 11:53:00 PM 38.7626 119.0983 285° West  Level Estimated
Thu 11:54:00 PM 38.7878 118.9807 285° West  Level Estimated
Thu 11:55:00 PM 38.8129 118.8631 285° West  Level Estimated
Thu 11:56:00 PM 38.8378 118.7454 285° West  Level Estimated
Thu 11:57:00 PM 38.8627 118.6276 285° West  Level Estimated
Thu 11:58:00 PM 38.8875 118.5097 285° West  Level Estimated
Thu 11:59:00 PM 38.9121 118.3917 285° West  Level Estimated
Fri 12:00:00 AM 38.9366 118.2737 285° West  Level Estimated
Fri 12:01:00 AM 38.9609 118.1555 285° West  Level Estimated
Fri 12:02:00 AM 38.9852 118.0373 285° West  Level Estimated
Fri 12:03:00 AM 39.0093 117.9190 285° West  Level Estimated
Fri 12:04:00 AM 39.0334 117.8007 285° West  Level Estimated
Fri 12:05:00 AM 39.0573 117.6822 285° West  Level Estimated
Fri 12:06:00 AM 39.0811 117.5637 285° West  Level Estimated
Fri 12:07:00 AM 39.1047 117.4451 284° West  Level Estimated
Fri 12:08:00 AM 39.1244 117.3462 284° West  Level Estimated
Fri 12:09:00 AM 39.1244 117.3462 14° North  Level Estimated
Fri 12:10:00 AM 39.1244 117.3462 14° North  Level Estimated
Fri 12:11:00 AM 39.1244 117.3462 14° North  Level Estimated
Fri 12:12:00 AM 39.1244 117.3462 14° North  Level Estimated
Fri 12:13:00 AM 39.1244 117.3462 14° North  Level Estimated
Fri 12:14:00 AM 39.1244 117.3462 14° North  Level Estimated
Fri 12:15:00 AM 39.1244 117.3462 14° North  Level Estimated
Fri 12:16:00 AM 39.1244 117.3462 14° North  Level Estimated
Fri 12:17:00 AM 39.1244 117.3462 14° North  Level Estimated
Fri 12:18:00 AM 39.1244 117.3462 14° North  Level Estimated
Fri 12:19:00 AM 39.1244 117.3462 14° North  Level Estimated
Fri 12:20:00 AM 39.1244 117.3462 14° North  Level Estimated
Fri 12:21:00 AM 39.1244 117.3462 14° North  Level Estimated
Fri 12:22:00 AM 39.1244 117.3462 14° North  Level Estimated
Fri 12:23:00 AM 39.1244 117.3462 14° North  Level Estimated
Fri 12:24:00 AM 39.1244 117.3462 14° North  Level Estimated
Fri 12:25:00 AM 39.1244 117.3462 14° North  Level Estimated
Fri 12:26:00 AM 39.1244 117.3462 14° North  Level Estimated

Login

Don't have an account? Register now (free) for customized features, flight alerts, and more!